createdAt,value
2022-12-19T00:00:48.011Z,1.96
2022-12-19T00:03:30.026Z,2.07
2022-12-19T00:06:03.820Z,2.15
2022-12-19T00:08:35.397Z,2.28
2022-12-19T00:11:05.780Z,2.37
2022-12-19T00:13:40.968Z,2.37
2022-12-19T00:16:13.302Z,2.32
2022-12-19T00:18:45.664Z,2.36
2022-12-19T00:21:16.800Z,2.34
2022-12-19T00:23:48.567Z,2.36
2022-12-19T00:26:20.655Z,2.40
2022-12-19T00:28:53.164Z,2.38
2022-12-19T00:31:24.125Z,2.33
2022-12-19T00:33:55.418Z,2.28
2022-12-19T00:36:27.757Z,2.20
2022-12-19T00:38:59.854Z,2.18
2022-12-19T00:41:31.626Z,2.23
2022-12-19T00:44:03.396Z,2.28
2022-12-19T00:46:35.491Z,2.28
2022-12-19T00:49:06.876Z,2.25
2022-12-19T00:51:37.837Z,2.22
2022-12-19T00:54:12.064Z,2.26
2022-12-19T00:56:43.469Z,2.30
2022-12-19T00:59:14.393Z,2.37
2022-12-19T01:01:47.901Z,2.34
2022-12-19T01:04:28.222Z,2.31
2022-12-19T01:07:02.739Z,2.21
2022-12-19T01:09:37.470Z,2.05
2022-12-19T01:12:26.354Z,1.77
2022-12-19T01:15:01.694Z,1.55
2022-12-19T01:17:42.344Z,1.39
2022-12-19T01:20:17.046Z,0.87
2022-12-19T01:22:49.967Z,0.39
2022-12-19T01:25:20.908Z,0.36
2022-12-19T01:27:51.669Z,0.05
2022-12-19T01:30:22.829Z,-0.05
2022-12-19T01:32:53.951Z,-0.32
2022-12-19T01:35:25.084Z,-0.73
2022-12-19T01:38:08.132Z,-0.80
2022-12-19T01:40:39.869Z,-1.02
2022-12-19T01:43:14.779Z,-0.77
2022-12-19T01:45:46.466Z,-0.66
2022-12-19T01:48:19.425Z,-0.43
2022-12-19T01:51:01.260Z,-0.41
2022-12-19T01:53:48.368Z,-0.46
2022-12-19T01:56:23.989Z,-0.72
2022-12-19T01:59:06.404Z,-0.62
2022-12-19T02:01:50.963Z,-1.09
2022-12-19T02:04:32.025Z,-1.53
2022-12-19T02:07:10.917Z,-1.74
2022-12-19T02:09:50.547Z,-1.77
2022-12-19T02:12:29.848Z,-2.07
2022-12-19T02:15:03.057Z,-2.24
2022-12-19T02:17:39.322Z,-2.21
2022-12-19T02:20:23.344Z,-2.09
2022-12-19T02:23:03.571Z,-2.03
2022-12-19T02:25:44.711Z,-1.76
2022-12-19T02:28:30.078Z,-1.73
2022-12-19T02:31:13.793Z,-1.52
2022-12-19T02:33:53.077Z,-1.08
2022-12-19T02:36:32.443Z,-0.85
2022-12-19T02:39:12.121Z,-0.45
2022-12-19T02:41:45.998Z,-0.26
2022-12-19T02:44:23.566Z,-0.35
2022-12-19T02:46:54.305Z,-0.40
2022-12-19T02:49:30.499Z,-0.71
2022-12-19T02:52:11.184Z,-1.40
2022-12-19T02:54:42.356Z,-1.90
2022-12-19T02:57:19.774Z,-1.87
2022-12-19T02:59:57.561Z,-1.95
2022-12-19T03:02:34.123Z,-2.35
2022-12-19T03:05:09.860Z,-2.05
2022-12-19T03:07:43.807Z,-2.00
2022-12-19T03:10:20.076Z,-1.84
2022-12-19T03:12:54.883Z,-2.32
2022-12-19T03:15:27.899Z,-2.20
2022-12-19T03:18:00.088Z,-1.99
2022-12-19T03:20:37.114Z,-1.93
2022-12-19T03:23:07.759Z,-1.97
2022-12-19T03:25:39.659Z,-1.96
2022-12-19T03:28:13.031Z,-2.41
2022-12-19T03:30:44.618Z,-2.29
2022-12-19T03:33:15.100Z,-2.29
2022-12-19T03:35:47.691Z,-2.25
2022-12-19T03:38:19.532Z,-1.78
2022-12-19T03:40:51.300Z,-1.92
2022-12-19T03:43:23.254Z,-1.64
2022-12-19T03:45:56.608Z,-2.20
2022-12-19T03:48:30.833Z,-1.90
2022-12-19T03:51:07.217Z,-1.73
2022-12-19T03:53:45.982Z,-1.62
2022-12-19T03:56:19.796Z,-1.47
2022-12-19T03:58:53.361Z,-1.84
2022-12-19T04:01:22.648Z,-1.50
2022-12-19T04:03:53.652Z,-1.20
2022-12-19T04:06:24.541Z,-0.75
2022-12-19T04:08:55.383Z,-0.50
2022-12-19T04:11:27.750Z,-0.34
2022-12-19T04:14:00.278Z,-0.14
2022-12-19T04:16:33.914Z,-0.35
2022-12-19T04:19:06.963Z,-0.10
2022-12-19T04:21:41.168Z,0.16
2022-12-19T04:24:13.495Z,0.19
2022-12-19T04:26:46.543Z,0.09
2022-12-19T04:29:17.732Z,0.03
2022-12-19T04:31:49.412Z,0.21
2022-12-19T04:34:20.966Z,0.34
2022-12-19T04:36:52.425Z,0.33
2022-12-19T04:39:23.417Z,0.17
2022-12-19T04:41:55.802Z,0.11
2022-12-19T04:44:26.587Z,-0.10
2022-12-19T04:46:57.133Z,-0.08
2022-12-19T04:49:27.707Z,-0.05
2022-12-19T04:51:58.629Z,-0.01
2022-12-19T04:54:29.759Z,-0.04
2022-12-19T04:57:00.741Z,-0.12
2022-12-19T04:59:31.838Z,-0.37
2022-12-19T05:02:02.627Z,-0.21
2022-12-19T05:04:33.322Z,-0.35
2022-12-19T05:07:03.850Z,-0.33
2022-12-19T05:09:34.711Z,-0.09
2022-12-19T05:12:05.543Z,-0.48
2022-12-19T05:14:36.402Z,-0.48
2022-12-19T05:17:07.172Z,-0.32
2022-12-19T05:19:37.912Z,-0.51
2022-12-19T05:22:08.581Z,-0.45
2022-12-19T05:24:39.278Z,-0.36
2022-12-19T05:27:09.802Z,-0.08
2022-12-19T05:29:40.592Z,-0.35
2022-12-19T05:32:11.204Z,-0.49
2022-12-19T05:34:42.011Z,-0.44
2022-12-19T05:37:13.452Z,-0.58
2022-12-19T05:39:44.152Z,-0.93
2022-12-19T05:42:14.746Z,-1.28
2022-12-19T05:44:45.557Z,-1.71
2022-12-19T05:47:16.273Z,-1.67
2022-12-19T05:49:47.008Z,-1.90
2022-12-19T05:52:18.107Z,-1.93
2022-12-19T05:54:49.095Z,-1.81
2022-12-19T05:57:19.535Z,-1.90
2022-12-19T05:59:50.353Z,-2.10
2022-12-19T06:02:21.880Z,-2.11
2022-12-19T06:04:52.635Z,-1.94
2022-12-19T06:07:23.424Z,-1.57
2022-12-19T06:09:54.155Z,-1.50
2022-12-19T06:12:24.775Z,-1.65
2022-12-19T06:14:55.654Z,-2.01
2022-12-19T06:17:26.308Z,-1.96
2022-12-19T06:19:57.156Z,-1.98
2022-12-19T06:22:27.694Z,-1.58
2022-12-19T06:24:58.298Z,-1.51
2022-12-19T06:27:28.768Z,-1.69
2022-12-19T06:29:59.346Z,-1.70
2022-12-19T06:32:34.770Z,-1.80
2022-12-19T06:35:09.301Z,-1.51
2022-12-19T06:37:40.051Z,-1.49
2022-12-19T06:40:33.113Z,-1.85
2022-12-19T06:43:03.681Z,-1.88
2022-12-19T06:45:34.305Z,-1.78
2022-12-19T06:48:05.465Z,-1.43
2022-12-19T06:50:37.071Z,-1.86
2022-12-19T06:53:08.820Z,-1.78
2022-12-19T06:55:39.560Z,-1.67
2022-12-19T06:58:10.188Z,-1.34
2022-12-19T07:00:40.848Z,-1.21
2022-12-19T07:03:13.128Z,-1.58
2022-12-19T07:05:43.924Z,-1.86
2022-12-19T07:08:14.761Z,-2.09
2022-12-19T07:10:45.524Z,-1.91
2022-12-19T07:13:16.452Z,-1.86
2022-12-19T07:15:46.963Z,-2.18
2022-12-19T07:18:18.448Z,-2.32
2022-12-19T07:20:49.272Z,-2.37
2022-12-19T07:23:21.785Z,-2.26
2022-12-19T07:25:52.358Z,-2.04
2022-12-19T07:28:23.286Z,-1.83
2022-12-19T07:30:53.850Z,-1.62
2022-12-19T07:33:24.612Z,-1.51
2022-12-19T07:35:55.168Z,-1.49
2022-12-19T07:38:26.010Z,-1.29
2022-12-19T07:40:56.647Z,-1.28
2022-12-19T07:43:27.755Z,-0.92
2022-12-19T07:45:58.554Z,-0.70
2022-12-19T07:48:30.280Z,-1.17
2022-12-19T07:51:00.715Z,-1.40
2022-12-19T07:53:34.547Z,-1.08
2022-12-19T07:56:05.238Z,-0.70
2022-12-19T07:58:36.077Z,-0.78
2022-12-19T08:01:07.449Z,-1.22
2022-12-19T08:03:39.126Z,-1.14
2022-12-19T08:06:09.917Z,-1.22
2022-12-19T08:08:40.778Z,-1.21
2022-12-19T08:11:12.286Z,-1.14
2022-12-19T08:13:46.378Z,-0.92
2022-12-19T08:16:18.300Z,-0.65
2022-12-19T08:18:49.302Z,-0.63
2022-12-19T08:21:20.171Z,-0.62
2022-12-19T08:23:50.772Z,-0.57
2022-12-19T08:26:25.483Z,-0.47
2022-12-19T08:28:57.459Z,-0.38
2022-12-19T08:31:29.701Z,-0.35
2022-12-19T08:34:00.346Z,-0.46
2022-12-19T08:36:30.890Z,-0.66
2022-12-19T08:39:02.178Z,-0.41
2022-12-19T08:41:33.077Z,-0.48
2022-12-19T08:44:03.879Z,-0.30
2022-12-19T08:46:34.670Z,-0.25
2022-12-19T08:49:05.525Z,-0.10
2022-12-19T08:51:36.120Z,0.09
2022-12-19T08:54:07.794Z,-0.08
2022-12-19T08:56:46.826Z,-0.06
2022-12-19T08:59:22.869Z,-0.26
2022-12-19T09:02:02.458Z,-0.33
2022-12-19T09:05:07.365Z,-0.48
2022-12-19T09:07:24.027Z,0.05
2022-12-19T09:09:54.972Z,-0.23
2022-12-19T09:12:25.770Z,-0.24
2022-12-19T09:14:56.433Z,-0.37
2022-12-19T09:17:27.028Z,-0.52
2022-12-19T09:19:57.894Z,-0.45
2022-12-19T09:22:29.402Z,0.09
2022-12-19T09:25:00.490Z,0.57
2022-12-19T09:27:31.064Z,0.89
2022-12-19T09:30:02.338Z,1.18
2022-12-19T09:32:33.296Z,1.21
2022-12-19T09:35:04.289Z,1.04
2022-12-19T09:37:34.935Z,1.19
2022-12-19T09:40:06.556Z,1.12
2022-12-19T09:42:52.370Z,0.81
2022-12-19T09:45:40.823Z,1.09
2022-12-19T09:48:23.593Z,1.40
2022-12-19T09:51:09.975Z,1.39
2022-12-19T09:53:46.007Z,1.48
2022-12-19T09:56:27.649Z,1.45
2022-12-19T09:59:00.156Z,1.54
2022-12-19T10:01:34.238Z,1.77
2022-12-19T10:04:07.004Z,1.64
2022-12-19T10:07:06.921Z,1.58
2022-12-19T10:11:28.718Z,1.79
2022-12-19T10:12:43.778Z,1.83
2022-12-19T10:15:23.956Z,2.08
2022-12-19T10:18:06.591Z,2.18
2022-12-19T10:20:39.569Z,2.09
2022-12-19T10:23:17.688Z,2.17
2022-12-19T10:25:53.733Z,2.26
2022-12-19T10:28:33.116Z,2.22
2022-12-19T10:31:17.222Z,2.37
2022-12-19T10:33:56.272Z,2.72
2022-12-19T10:36:55.804Z,2.78
2022-12-19T10:39:24.046Z,2.89
2022-12-19T10:41:57.421Z,2.97
2022-12-19T10:44:29.803Z,3.22
2022-12-19T10:47:00.639Z,3.20
2022-12-19T10:49:35.145Z,3.56
2022-12-19T10:52:08.080Z,3.72
2022-12-19T10:54:44.240Z,3.63
2022-12-19T10:57:26.475Z,3.80
2022-12-19T10:59:58.122Z,3.93
2022-12-19T11:02:35.831Z,4.12
2022-12-19T11:05:08.352Z,4.23
2022-12-19T11:07:39.147Z,4.34
2022-12-19T11:12:38.585Z,4.38
2022-12-19T11:17:45.676Z,4.25
2022-12-19T11:22:20.656Z,4.56
2022-12-19T11:29:25.025Z,4.43
2022-12-19T11:29:32.817Z,4.45
2022-12-19T11:30:25.575Z,4.56
2022-12-19T11:30:49.021Z,4.52
2022-12-19T11:32:20.569Z,4.53
2022-12-19T11:33:55.290Z,4.62
2022-12-19T11:36:31.749Z,4.77
2022-12-19T11:39:04.186Z,4.84
2022-12-19T11:41:38.413Z,5.01
2022-12-19T11:44:13.519Z,4.96
2022-12-19T11:46:46.307Z,4.97
2022-12-19T11:49:25.090Z,5.05
2022-12-19T11:51:57.583Z,5.07
2022-12-19T11:54:30.581Z,4.90
2022-12-19T11:57:01.842Z,4.92
2022-12-19T11:59:33.554Z,4.77
2022-12-19T12:02:10.637Z,4.75
2022-12-19T12:04:52.977Z,4.78
2022-12-19T12:07:31.897Z,4.57
2022-12-19T12:14:01.902Z,4.30
2022-12-19T12:20:54.211Z,4.44
2022-12-19T12:29:05.463Z,4.47
2022-12-19T12:31:04.117Z,4.35
2022-12-19T12:31:23.724Z,4.25
2022-12-19T12:31:49.076Z,4.25
2022-12-19T12:31:52.920Z,4.29
2022-12-19T12:31:55.329Z,4.27
2022-12-19T12:35:34.428Z,4.37
2022-12-19T12:39:26.681Z,4.79
2022-12-19T12:42:05.001Z,4.78
2022-12-19T12:44:44.837Z,4.95
2022-12-19T12:47:19.236Z,5.04
2022-12-19T12:49:53.118Z,5.15
2022-12-19T12:52:28.178Z,5.05
2022-12-19T12:54:59.416Z,3.66
2022-12-19T12:57:37.656Z,2.05
2022-12-19T13:00:23.063Z,0.75
2022-12-19T13:02:55.812Z,-0.28
2022-12-19T13:05:36.062Z,-1.02
2022-12-19T13:08:19.981Z,-1.64
2022-12-19T13:10:56.566Z,-2.13
2022-12-19T13:13:40.489Z,-2.56
2022-12-19T13:16:24.714Z,-2.94
2022-12-19T13:19:04.604Z,-3.27
2022-12-19T13:21:50.185Z,-3.49
2022-12-19T13:24:23.385Z,-3.68
2022-12-19T13:26:52.680Z,-3.83
2022-12-19T13:29:30.365Z,-3.97
2022-12-19T13:32:11.264Z,-4.09
2022-12-19T13:34:53.835Z,-3.86
2022-12-19T13:39:50.749Z,-1.96
2022-12-19T13:40:33.940Z,-0.06
2022-12-19T13:43:31.068Z,0.21
2022-12-19T13:46:02.600Z,-1.00
2022-12-19T13:48:34.878Z,-1.84
2022-12-19T13:51:08.119Z,-2.42
2022-12-19T13:53:37.258Z,-2.84
2022-12-19T13:56:12.945Z,-3.23
2022-12-19T13:58:48.564Z,-3.56
2022-12-19T14:01:23.047Z,-3.86
2022-12-19T14:03:55.179Z,-4.13
2022-12-19T14:06:27.040Z,-4.34
2022-12-19T14:11:25.222Z,-4.53
2022-12-19T14:13:44.399Z,-4.39
2022-12-19T14:15:13.164Z,-2.54
2022-12-19T14:17:48.942Z,-0.72
2022-12-19T14:22:04.278Z,0.32
2022-12-19T14:23:16.003Z,0.85
2022-12-19T14:28:15.564Z,1.39
2022-12-19T14:28:54.920Z,1.89
2022-12-19T14:31:26.650Z,2.30
2022-12-19T14:34:19.059Z,2.40
2022-12-19T14:36:51.364Z,2.53
2022-12-19T14:39:29.347Z,2.73
2022-12-19T14:42:31.733Z,3.04
2022-12-19T14:51:51.680Z,3.22
2022-12-19T14:52:36.099Z,3.34
2022-12-19T14:54:26.802Z,3.45
2022-12-19T14:56:09.469Z,3.57
2022-12-19T14:57:50.628Z,3.64
2022-12-19T15:01:07.448Z,3.62
2022-12-19T15:03:18.558Z,3.57
2022-12-19T15:05:49.774Z,3.36
2022-12-19T15:08:28.108Z,3.34
2022-12-19T15:11:58.241Z,3.29
2022-12-19T15:14:56.644Z,3.35
2022-12-19T15:17:29.913Z,3.23
2022-12-19T15:20:00.863Z,3.09
2022-12-19T15:22:31.940Z,3.07
2022-12-19T15:25:02.643Z,3.13
2022-12-19T15:27:33.817Z,3.09
2022-12-19T15:30:04.485Z,3.11
2022-12-19T15:32:35.545Z,3.29
2022-12-19T15:35:09.683Z,3.33
2022-12-19T15:37:40.901Z,3.42
2022-12-19T15:40:15.441Z,3.40
2022-12-19T15:42:48.757Z,3.52
2022-12-19T15:45:20.190Z,3.54
2022-12-19T15:47:51.360Z,3.44
2022-12-19T15:50:22.871Z,3.47
2022-12-19T15:52:55.607Z,3.52
2022-12-19T15:55:28.447Z,3.62
2022-12-19T15:58:01.057Z,3.78
2022-12-19T16:00:33.999Z,3.90
2022-12-19T16:05:55.382Z,3.85
2022-12-19T16:08:26.682Z,3.76
2022-12-19T16:11:01.665Z,3.80
2022-12-19T16:13:35.602Z,3.66
2022-12-19T16:16:13.034Z,3.71
2022-12-19T16:18:46.504Z,3.74
2022-12-19T16:21:33.241Z,3.75
2022-12-19T16:24:05.151Z,3.77
2022-12-19T16:26:36.849Z,3.74
2022-12-19T16:29:12.687Z,3.59
2022-12-19T16:31:43.182Z,3.65
2022-12-19T16:34:15.633Z,3.54
2022-12-19T16:36:46.425Z,3.55
2022-12-19T16:39:17.558Z,3.60
2022-12-19T16:41:48.392Z,3.70
2022-12-19T16:44:20.646Z,3.75
2022-12-19T16:46:51.710Z,3.78
2022-12-19T16:49:23.990Z,3.85
2022-12-19T16:51:54.500Z,3.92
2022-12-19T16:54:25.861Z,4.04
2022-12-19T16:56:56.479Z,4.16
2022-12-19T16:59:28.639Z,4.25
2022-12-19T17:02:00.405Z,4.06
2022-12-19T17:04:31.747Z,3.90
2022-12-19T17:07:02.162Z,3.89
2022-12-19T17:09:33.591Z,4.03
2022-12-19T17:12:04.088Z,3.94
2022-12-19T17:14:35.611Z,3.90
2022-12-19T17:17:06.190Z,3.93
2022-12-19T17:19:38.313Z,3.66
2022-12-19T17:22:12.116Z,3.42
2022-12-19T17:24:43.212Z,3.43
2022-12-19T17:27:14.169Z,3.44
2022-12-19T17:29:45.925Z,3.47
2022-12-19T17:32:23.461Z,3.33
2022-12-19T17:34:55.086Z,3.12
2022-12-19T17:37:25.516Z,2.83
2022-12-19T17:39:56.553Z,2.79
2022-12-19T17:42:33.646Z,2.99
2022-12-19T17:45:09.402Z,3.03
2022-12-19T17:47:40.040Z,2.70
2022-12-19T17:50:18.747Z,2.67
2022-12-19T17:52:49.968Z,2.91
2022-12-19T17:55:22.436Z,2.91
2022-12-19T17:57:53.266Z,2.91
2022-12-19T18:00:30.323Z,2.10
2022-12-19T18:03:03.004Z,2.34
2022-12-19T18:05:36.121Z,1.98
2022-12-19T18:08:08.153Z,1.59
2022-12-19T18:10:38.999Z,1.61
2022-12-19T18:13:09.470Z,1.40
2022-12-19T18:15:41.537Z,1.70
2022-12-19T18:18:13.631Z,1.79
2022-12-19T18:20:45.153Z,2.09
2022-12-19T18:23:18.542Z,2.24
2022-12-19T18:25:51.039Z,2.37
2022-12-19T18:28:23.972Z,2.48
2022-12-19T18:30:57.479Z,2.26
2022-12-19T18:33:26.559Z,1.92
2022-12-19T18:35:57.587Z,2.15
2022-12-19T18:38:28.128Z,1.93
2022-12-19T18:40:59.187Z,1.72
2022-12-19T18:43:31.473Z,1.33
2022-12-19T18:46:02.228Z,1.88
2022-12-19T18:48:34.635Z,1.93
2022-12-19T18:51:06.246Z,2.25
2022-12-19T18:53:36.913Z,1.92
2022-12-19T18:56:08.037Z,1.68
2022-12-19T18:58:38.842Z,1.75
2022-12-19T19:01:12.869Z,1.45
2022-12-19T19:03:45.414Z,1.73
2022-12-19T19:06:19.179Z,1.61
2022-12-19T19:08:50.584Z,1.55
2022-12-19T19:11:45.575Z,1.53
2022-12-19T19:14:16.069Z,1.72
2022-12-19T19:16:46.804Z,1.41
2022-12-19T19:19:18.971Z,1.86
2022-12-19T19:21:50.103Z,2.26
2022-12-19T19:24:22.227Z,2.24
2022-12-19T19:26:53.061Z,1.88
2022-12-19T19:29:23.686Z,1.10
2022-12-19T19:31:54.733Z,1.68
2022-12-19T19:34:27.443Z,1.64
2022-12-19T19:36:59.364Z,1.09
2022-12-19T19:39:32.837Z,0.50
2022-12-19T19:42:05.320Z,1.08
2022-12-19T19:44:35.970Z,1.80
2022-12-19T19:47:06.872Z,1.39
2022-12-19T19:49:37.546Z,1.56
2022-12-19T19:52:08.195Z,1.22
2022-12-19T19:54:38.807Z,1.09
2022-12-19T19:57:09.857Z,2.06
2022-12-19T19:59:40.573Z,2.30
2022-12-19T20:02:12.975Z,2.30
2022-12-19T20:04:48.474Z,2.50
2022-12-19T20:07:19.609Z,2.57
2022-12-19T20:09:50.691Z,2.55
2022-12-19T20:12:21.873Z,2.50
2022-12-19T20:14:52.788Z,2.19
2022-12-19T20:17:23.707Z,1.79
2022-12-19T20:19:54.181Z,2.08
2022-12-19T20:22:25.009Z,2.24
2022-12-19T20:24:55.681Z,2.35
2022-12-19T20:27:26.633Z,2.27
2022-12-19T20:29:57.870Z,2.22
2022-12-19T20:32:30.551Z,2.32
2022-12-19T20:35:01.229Z,2.31
2022-12-19T20:37:33.047Z,2.40
2022-12-19T20:40:06.001Z,2.89
2022-12-19T20:42:37.377Z,3.28
2022-12-19T20:45:08.835Z,3.30
2022-12-19T20:47:40.071Z,3.22
2022-12-19T20:50:13.037Z,2.82
2022-12-19T20:52:44.000Z,2.84
2022-12-19T20:55:15.045Z,3.13
2022-12-19T20:57:45.977Z,3.10
2022-12-19T21:00:18.243Z,3.09
2022-12-19T21:03:25.917Z,3.35
2022-12-19T21:05:40.084Z,3.49
2022-12-19T21:08:10.944Z,3.15
2022-12-19T21:10:41.654Z,3.06
2022-12-19T21:13:12.595Z,3.47
2022-12-19T21:15:43.140Z,3.28
2022-12-19T21:18:14.220Z,3.19
2022-12-19T21:20:44.890Z,2.65
2022-12-19T21:23:15.690Z,2.84
2022-12-19T21:25:46.405Z,3.10
2022-12-19T21:28:17.399Z,2.97
2022-12-19T21:30:48.072Z,3.04
2022-12-19T21:33:18.892Z,3.35
2022-12-19T21:35:49.463Z,2.94
2022-12-19T21:38:20.252Z,3.03
2022-12-19T21:40:51.115Z,3.24
2022-12-19T21:43:21.803Z,3.47
2022-12-19T21:45:52.432Z,3.50
2022-12-19T21:48:23.325Z,3.39
2022-12-19T21:50:57.943Z,3.31
2022-12-19T21:53:28.942Z,3.37
2022-12-19T21:56:04.989Z,2.95
2022-12-19T21:58:36.158Z,3.61
2022-12-19T22:01:08.572Z,3.53
2022-12-19T22:03:40.186Z,3.21
2022-12-19T22:06:15.210Z,3.06
2022-12-19T22:08:45.841Z,3.62
2022-12-19T22:11:17.901Z,3.83
2022-12-19T22:13:49.757Z,3.89
2022-12-19T22:16:20.607Z,4.17
2022-12-19T22:18:53.104Z,3.67
2022-12-19T22:21:24.049Z,3.65
2022-12-19T22:23:58.973Z,3.49
2022-12-19T22:26:30.373Z,3.69
2022-12-19T22:29:01.219Z,3.70
2022-12-19T22:31:33.206Z,3.88
2022-12-19T22:34:04.721Z,3.54
2022-12-19T22:36:36.177Z,4.04
2022-12-19T22:39:08.177Z,4.23
2022-12-19T22:41:39.798Z,4.30
2022-12-19T22:44:15.372Z,3.92
2022-12-19T22:46:46.271Z,3.74
2022-12-19T22:49:17.772Z,3.79
2022-12-19T22:51:48.874Z,4.05
2022-12-19T22:54:19.660Z,4.62
2022-12-19T22:56:50.645Z,4.38
2022-12-19T22:59:21.549Z,4.13
2022-12-19T23:01:53.452Z,4.36
2022-12-19T23:04:24.416Z,4.77
2022-12-19T23:06:55.315Z,4.86
2022-12-19T23:09:26.266Z,4.61
2022-12-19T23:11:57.358Z,4.73
2022-12-19T23:14:28.128Z,4.89
2022-12-19T23:16:58.898Z,4.80
2022-12-19T23:19:29.713Z,4.83
2022-12-19T23:22:00.487Z,4.89
2022-12-19T23:24:31.582Z,4.49
2022-12-19T23:27:03.945Z,4.12
2022-12-19T23:29:34.582Z,4.31
2022-12-19T23:32:05.791Z,4.22
2022-12-19T23:34:37.306Z,4.54
2022-12-19T23:37:11.131Z,4.85
2022-12-19T23:39:42.529Z,5.10
2022-12-19T23:42:13.327Z,4.78
2022-12-19T23:44:44.713Z,2.83
2022-12-19T23:47:15.552Z,1.04
2022-12-19T23:49:46.020Z,-0.21
2022-12-19T23:52:17.378Z,-1.10
2022-12-19T23:54:47.966Z,-1.77
2022-12-19T23:57:18.885Z,-1.70
2022-12-19T23:59:50.125Z,-0.12
